Time;durP1;ratioP1;P1;durP2;ratioP2;P2;SDS_P1;SDS_P2;PMS_P1;PMS_P2;Temp;Humidity;BMP_temperature;BMP_pressure;BME280_temperature;BME280_humidity;BME280_pressure;Samples;Min_cycle;Max_cycle;Signal;HPM_P1;HPM_P2
2022/07/21 00:02:19;;;;;;;20.20;8.40;;;;;;;19.20;48.49;99316.52;106099;1274;97975;-66
2022/07/21 00:04:49;;;;;;;23.40;9.60;;;;;;;19.17;48.52;99319.02;106104;1274;108289;-67
2022/07/21 00:07:18;;;;;;;21.70;10.00;;;;;;;19.13;48.79;99319.41;106114;1274;96311;-66
2022/07/21 00:09:48;;;;;;;20.10;9.40;;;;;;;19.09;48.69;99321.99;106091;1274;97982;-67
2022/07/21 00:12:17;;;;;;;19.90;9.10;;;;;;;19.06;48.91;99326.45;106150;1274;111334;-66
2022/07/21 00:14:47;;;;;;;22.10;8.80;;;;;;;19.02;48.83;99324.30;106124;1274;97781;-66
2022/07/21 00:17:16;;;;;;;24.20;10.30;;;;;;;18.99;49.02;99324.83;106101;1274;108416;-66
2022/07/21 00:19:44;;;;;;;22.00;9.30;;;;;;;18.95;48.98;99324.83;106102;1274;97879;-69
2022/07/21 00:22:14;;;;;;;21.20;9.40;;;;;;;18.93;49.12;99326.35;106150;1274;97733;-67
2022/07/21 00:24:43;;;;;;;20.80;9.20;;;;;;;18.91;49.36;99321.89;106158;1274;112027;-66
2022/07/21 00:27:14;;;;;;;22.30;9.00;;;;;;;18.87;49.51;99323.86;106228;1274;97898;-65
2022/07/21 00:29:44;;;;;;;21.90;9.30;;;;;;;18.84;49.50;99323.47;106128;1274;108423;-64
2022/07/21 00:32:12;;;;;;;22.90;9.40;;;;;;;18.81;49.60;99322.36;106101;1273;95245;-67
2022/07/21 00:34:42;;;;;;;18.60;9.00;;;;;;;18.78;49.63;99322.65;106166;1274;97870;-68
2022/07/21 00:37:14;;;;;;;20.50;9.20;;;;;;;18.73;49.70;99320.58;106210;1273;111278;-68
2022/07/21 00:39:44;;;;;;;21.00;9.90;;;;;;;18.70;49.80;99314.48;106248;1274;97943;-66
2022/07/21 00:42:28;;;;;;;20.20;9.20;;;;;;;18.67;50.00;99314.56;106220;1274;109243;-67
2022/07/21 00:44:58;;;;;;;19.30;8.90;;;;;;;18.64;49.95;99317.81;106119;1274;97969;-67
2022/07/21 00:47:30;;;;;;;21.00;9.90;;;;;;;18.59;50.18;99316.80;106060;1274;95284;-67
2022/07/21 00:50:02;;;;;;;21.20;9.70;;;;;;;18.56;50.18;99318.60;106151;1273;111449;-66
2022/07/21 00:52:32;;;;;;;22.40;10.20;;;;;;;18.52;50.29;99321.30;106229;1274;97880;-68
2022/07/21 00:55:02;;;;;;;24.60;10.50;;;;;;;18.49;50.28;99324.31;106172;1274;107747;-69
2022/07/21 00:57:32;;;;;;;22.40;9.80;;;;;;;18.46;50.43;99322.53;106192;1274;97838;-67
2022/07/21 01:00:08;;;;;;;22.40;9.80;;;;;;;18.41;50.54;99319.90;106028;1275;95257;-66
2022/07/21 01:02:38;;;;;;;24.90;10.20;;;;;;;18.38;50.82;99322.42;105997;1277;111426;-66
2022/07/21 01:05:14;;;;;;;24.00;10.30;;;;;;;18.34;50.60;99323.48;106025;1274;97973;-65
2022/07/21 01:07:48;;;;;;;23.30;10.60;;;;;;;18.30;50.73;99328.56;105968;1274;107676;-67
2022/07/21 01:10:19;;;;;;;24.00;10.00;;;;;;;18.27;51.00;99328.54;106050;1274;97876;-67
2022/07/21 01:12:48;;;;;;;20.40;9.60;;;;;;;18.23;50.98;99329.66;106142;1274;97949;-66
2022/07/21 01:15:19;;;;;;;22.40;10.30;;;;;;;18.18;51.20;99326.67;105996;1277;112047;-66
2022/07/21 01:17:47;;;;;;;22.40;10.60;;;;;;;18.15;51.26;99328.42;106114;1274;97874;-66
2022/07/21 01:20:23;;;;;;;20.60;9.30;;;;;;;18.12;51.32;99330.55;106158;1274;108422;-65
2022/07/21 01:22:55;;;;;;;22.40;10.30;;;;;;;18.09;51.33;99328.83;106146;1274;97959;-65
2022/07/21 01:25:25;;;;;;;23.50;10.50;;;;;;;18.07;51.38;99328.40;106137;1274;95253;-66
2022/07/21 01:27:53;;;;;;;20.40;9.30;;;;;;;18.05;51.54;99328.58;106158;1274;111877;-65
2022/07/21 01:30:23;;;;;;;22.90;10.20;;;;;;;18.03;51.78;99328.92;106130;1274;97874;-67
2022/07/21 01:32:53;;;;;;;24.00;10.80;;;;;;;18.01;51.89;99329.69;106113;1274;107851;-65
2022/07/21 01:35:23;;;;;;;22.80;10.60;;;;;;;17.98;51.78;99333.67;106098;1274;97974;-66
2022/07/21 01:37:55;;;;;;;24.30;10.50;;;;;;;17.95;51.88;99332.02;106132;1274;97881;-67
2022/07/21 01:43:14;;;;;;;24.90;9.70;;;;;;;17.88;52.16;99336.83;106109;1274;97704;-65
2022/07/21 01:45:42;;;;;;;21.50;9.90;;;;;;;17.85;52.13;99335.92;106106;1274;107686;-67
2022/07/21 01:48:12;;;;;;;23.70;10.50;;;;;;;17.82;52.37;99337.04;106143;1274;97882;-66
2022/07/21 01:50:41;;;;;;;23.00;10.20;;;;;;;17.79;52.19;99339.08;106184;1274;97852;-64
2022/07/21 01:53:11;;;;;;;20.30;9.70;;;;;;;17.77;52.52;99338.15;106133;1274;111205;-65
2022/07/21 01:55:40;;;;;;;24.10;10.60;;;;;;;17.73;52.52;99337.20;106134;1274;97949;-65
2022/07/21 01:58:10;;;;;;;22.60;9.80;;;;;;;17.71;52.69;99340.42;106193;1274;107813;-64
2022/07/21 02:00:39;;;;;;;25.00;10.80;;;;;;;17.69;52.90;99337.80;106247;1274;97845;-64
2022/07/21 02:03:08;;;;;;;24.10;10.70;;;;;;;17.68;52.88;99341.33;106171;1274;96353;-65
2022/07/21 02:05:37;;;;;;;21.10;10.20;;;;;;;17.67;52.91;99339.99;106110;1274;111375;-67
2022/07/21 02:08:07;;;;;;;22.30;10.60;;;;;;;17.64;52.99;99341.20;106141;1274;97630;-66
2022/07/21 02:10:36;;;;;;;20.60;10.50;;;;;;;17.61;52.94;99340.91;106196;1274;108278;-67
2022/07/21 02:13:08;;;;;;;24.60;10.70;;;;;;;17.58;53.10;99340.66;106230;1274;97925;-65
2022/07/21 02:15:35;;;;;;;21.20;10.10;;;;;;;17.55;53.22;99336.42;106143;1274;97834;-65
2022/07/21 02:18:05;;;;;;;25.80;10.70;;;;;;;17.52;53.28;99340.70;106069;1274;111931;-65
2022/07/21 02:20:34;;;;;;;22.00;10.20;;;;;;;17.49;53.32;99340.27;106083;1273;97937;-65
2022/07/21 02:23:04;;;;;;;23.80;10.40;;;;;;;17.48;53.49;99341.86;106113;1274;107831;-64
2022/07/21 02:25:32;;;;;;;22.80;10.50;;;;;;;17.46;53.37;99339.86;106097;1274;97962;-65
2022/07/21 02:28:03;;;;;;;24.30;10.50;;;;;;;17.44;53.62;99338.29;106143;1274;97820;-65
2022/07/21 02:30:33;;;;;;;21.10;10.20;;;;;;;17.40;53.52;99338.10;106106;1274;112505;-65
2022/07/21 02:33:03;;;;;;;19.80;9.70;;;;;;;17.37;53.63;99339.98;106111;1274;97983;-65
2022/07/21 02:35:34;;;;;;;22.00;10.00;;;;;;;17.36;53.86;99342.25;106172;1274;108310;-64
2022/07/21 02:38:04;;;;;;;22.30;10.30;;;;;;;17.33;53.87;99345.15;106132;1273;97940;-65
2022/07/21 02:40:34;;;;;;;22.10;9.90;;;;;;;17.30;54.05;99348.91;106141;1274;95294;-65
2022/07/21 02:43:03;;;;;;;23.30;10.20;;;;;;;17.26;53.96;99353.20;106075;1273;112482;-66
2022/07/21 02:45:34;;;;;;;21.90;10.90;;;;;;;17.22;53.92;99354.48;106069;1274;97772;-66
2022/07/21 02:48:08;;;;;;;23.30;10.30;;;;;;;17.18;54.06;99354.30;106157;1274;107704;-66
2022/07/21 02:50:41;;;;;;;23.70;11.20;;;;;;;17.16;54.18;99350.96;106106;1274;98578;-65
2022/07/21 02:53:17;;;;;;;22.00;11.50;;;;;;;17.13;54.20;99355.88;106139;1274;97797;-65
2022/07/21 02:55:50;;;;;;;23.30;11.10;;;;;;;17.10;54.43;99355.07;106092;1274;111431;-65
2022/07/21 02:58:20;;;;;;;24.10;10.50;;;;;;;17.10;54.38;99354.78;106085;1274;95315;-63
2022/07/21 03:00:52;;;;;;;21.80;10.60;;;;;;;17.09;54.51;99354.51;106068;1274;108362;-64
2022/07/21 03:03:24;;;;;;;22.40;10.60;;;;;;;17.07;54.52;99361.47;106089;1274;97807;-65
2022/07/21 03:05:54;;;;;;;22.80;10.60;;;;;;;17.06;54.52;99363.90;106124;1273;95288;-66
2022/07/21 03:08:25;;;;;;;23.30;10.30;;;;;;;17.05;54.92;99363.12;106134;1274;112514;-65
2022/07/21 03:10:54;;;;;;;21.50;10.90;;;;;;;17.02;54.77;99355.54;106251;1274;97879;-66
2022/07/21 03:13:24;;;;;;;22.80;10.60;;;;;;;17.00;54.90;99362.00;106134;1274;108417;-66
2022/07/21 03:15:53;;;;;;;24.60;10.40;;;;;;;16.99;54.96;99360.84;106095;1274;97874;-66
2022/07/21 03:18:22;;;;;;;23.00;10.40;;;;;;;16.97;55.21;99361.00;106147;1273;98522;-67
2022/07/21 03:20:52;;;;;;;21.90;10.70;;;;;;;16.94;55.09;99364.50;106109;1274;112113;-68
2022/07/21 03:23:22;;;;;;;23.00;10.30;;;;;;;16.90;55.14;99367.48;106063;1274;95261;-65
2022/07/21 03:25:53;;;;;;;24.90;10.00;;;;;;;16.87;55.08;99368.31;106138;1274;107649;-64
2022/07/21 03:28:21;;;;;;;23.70;10.10;;;;;;;16.85;55.13;99363.87;106214;1274;97882;-65
2022/07/21 03:30:50;;;;;;;26.70;10.90;;;;;;;16.84;55.40;99365.09;106263;1274;95299;-64
2022/07/21 03:33:20;;;;;;;24.70;10.60;;;;;;;16.82;55.57;99362.31;106213;1274;110423;-64
2022/07/21 03:35:51;;;;;;;23.50;10.70;;;;;;;16.82;55.60;99362.34;106203;1274;95216;-64
2022/07/21 03:38:19;;;;;;;21.30;9.80;;;;;;;16.81;55.64;99360.31;106206;1274;107794;-65
2022/07/21 03:40:49;;;;;;;26.50;11.40;;;;;;;16.81;55.86;99361.13;106033;1275;96377;-64
2022/07/21 03:43:20;;;;;;;23.60;11.30;;;;;;;16.81;55.77;99362.05;106118;1274;96368;-66
2022/07/21 03:45:48;;;;;;;23.20;9.80;;;;;;;16.81;55.81;99362.41;106104;1274;111439;-65
2022/07/21 03:48:18;;;;;;;23.50;10.90;;;;;;;16.83;55.92;99361.05;104782;1274;1826906;-66
2022/07/21 03:50:47;;;;;;;22.70;11.10;;;;;;;16.83;56.11;99355.41;106164;1274;108311;-65
2022/07/21 03:53:17;;;;;;;21.70;11.20;;;;;;;16.85;56.20;99357.65;106161;1274;95272;-65
2022/07/21 03:55:46;;;;;;;21.90;11.00;;;;;;;16.86;56.15;99355.93;106233;1274;97926;-64
2022/07/21 03:58:17;;;;;;;22.90;11.00;;;;;;;16.87;56.22;99356.89;106124;1274;112245;-65
2022/07/21 04:00:45;;;;;;;24.90;11.20;;;;;;;16.88;56.41;99356.98;106101;1274;97952;-66
2022/07/21 04:03:15;;;;;;;20.90;10.50;;;;;;;16.89;56.53;99353.86;105975;1274;108373;-66
2022/07/21 04:05:45;;;;;;;23.50;11.00;;;;;;;16.90;56.55;99356.05;106113;1274;97910;-65
2022/07/21 04:08:13;;;;;;;22.70;10.80;;;;;;;16.93;56.50;99360.65;106100;1274;97873;-66
2022/07/21 04:10:44;;;;;;;23.40;11.60;;;;;;;16.94;56.56;99359.80;106137;1274;111439;-67
2022/07/21 04:13:14;;;;;;;24.00;10.80;;;;;;;16.97;56.72;99364.77;105985;1277;97982;-66
2022/07/21 04:15:42;;;;;;;22.30;10.50;;;;;;;16.99;56.71;99369.95;106106;1274;108709;-66
2022/07/21 04:18:12;;;;;;;20.60;10.90;;;;;;;17.02;56.69;99372.00;106100;1274;98060;-65
2022/07/21 04:20:42;;;;;;;22.30;10.70;;;;;;;17.05;56.70;99373.00;106100;1274;95295;-64
2022/07/21 04:23:11;;;;;;;21.20;11.20;;;;;;;17.07;56.92;99375.95;106244;1274;111938;-69
2022/07/21 04:25:42;;;;;;;24.80;11.40;;;;;;;17.10;56.89;99376.73;106101;1273;97934;-66
2022/07/21 04:28:11;;;;;;;22.10;11.10;;;;;;;17.15;56.99;99379.59;106068;1274;108475;-68
2022/07/21 04:30:41;;;;;;;22.80;11.20;;;;;;;17.18;57.07;99375.17;106077;1274;98175;-66
2022/07/21 04:33:10;;;;;;;22.50;11.00;;;;;;;17.21;57.10;99375.94;106188;1274;97938;-67
2022/07/21 04:35:39;;;;;;;22.30;11.40;;;;;;;17.24;57.16;99373.29;106104;1274;111944;-66
2022/07/21 04:38:11;;;;;;;22.50;11.40;;;;;;;17.28;57.27;99374.75;106236;1273;97961;-65
2022/07/21 04:40:41;;;;;;;23.10;11.60;;;;;;;17.32;57.30;99372.63;106206;1274;109264;-65
2022/07/21 04:43:09;;;;;;;21.40;11.70;;;;;;;17.34;57.63;99372.14;106211;1273;97991;-67
2022/07/21 04:45:39;;;;;;;23.30;12.20;;;;;;;17.38;57.55;99373.91;106102;1274;98585;-66
2022/07/21 04:48:09;;;;;;;25.20;11.80;;;;;;;17.42;57.58;99377.32;106124;1274;111953;-67
2022/07/21 04:50:37;;;;;;;22.60;11.20;;;;;;;17.47;57.52;99374.90;106091;1274;97979;-66
2022/07/21 04:53:05;;;;;;;23.30;11.60;;;;;;;17.51;57.68;99374.30;106168;1274;108242;-66
2022/07/21 04:55:35;;;;;;;23.50;12.20;;;;;;;17.56;57.70;99365.61;106100;1274;95269;-66
2022/07/21 04:58:04;;;;;;;23.30;10.50;;;;;;;17.62;57.78;99366.48;106135;1274;96977;-66
2022/07/21 05:00:34;;;;;;;21.90;10.80;;;;;;;17.65;57.89;99365.23;106157;1274;112013;-67
2022/07/21 05:03:04;;;;;;;20.50;10.10;;;;;;;17.71;57.97;99362.54;106156;1274;97840;-69
2022/07/21 05:05:32;;;;;;;22.00;11.60;;;;;;;17.75;57.99;99360.66;106206;1274;108275;-69
2022/07/21 05:08:01;;;;;;;22.40;10.70;;;;;;;17.82;57.86;99358.73;106226;1274;97560;-67
2022/07/21 05:10:30;;;;;;;24.60;11.00;;;;;;;17.88;58.13;99355.48;106213;1274;99712;-66
2022/07/21 05:13:02;;;;;;;21.80;10.30;;;;;;;17.94;58.09;99359.74;106193;1274;111355;-66
2022/07/21 05:15:31;;;;;;;19.40;9.50;;;;;;;18.00;58.05;99357.35;106177;1274;97832;-66
2022/07/21 05:18:00;;;;;;;20.00;9.80;;;;;;;18.06;58.14;99359.28;106221;1274;106730;-64
2022/07/21 05:20:28;;;;;;;19.80;9.90;;;;;;;18.12;57.98;99361.39;106188;1274;98004;-66
2022/07/21 05:22:58;;;;;;;20.00;9.10;;;;;;;18.19;58.00;99361.61;106133;1274;97877;-67
2022/07/21 05:25:31;;;;;;;19.30;8.80;;;;;;;18.26;58.08;99362.86;106122;1274;111035;-66
2022/07/21 05:27:59;;;;;;;20.50;10.00;;;;;;;18.33;58.27;99355.92;106108;1274;97898;-66
2022/07/21 05:30:27;;;;;;;20.60;9.50;;;;;;;18.39;58.31;99359.07;106023;1274;108402;-64
2022/07/21 05:32:56;;;;;;;20.60;9.20;;;;;;;18.45;58.25;99363.46;106039;1274;98062;-67
2022/07/21 05:35:27;;;;;;;23.00;10.10;;;;;;;18.52;58.44;99366.78;106100;1274;97825;-65
2022/07/21 05:37:57;;;;;;;21.60;9.90;;;;;;;18.58;58.41;99365.82;106092;1272;110404;-66
2022/07/21 05:40:25;;;;;;;19.10;8.30;;;;;;;18.64;58.50;99363.91;106131;1274;97956;-67
2022/07/21 05:42:56;;;;;;;19.20;8.50;;;;;;;18.70;58.46;99357.06;106049;1274;107774;-66
2022/07/21 05:45:24;;;;;;;20.70;8.40;;;;;;;18.75;58.55;99357.63;106082;1274;95315;-66
2022/07/21 05:47:55;;;;;;;18.10;8.20;;;;;;;18.80;58.52;99362.61;106089;1274;97851;-65
2022/07/21 05:50:23;;;;;;;21.70;8.30;;;;;;;18.87;58.37;99366.31;106093;1273;111069;-64
2022/07/21 05:52:53;;;;;;;17.20;7.20;;;;;;;18.94;58.40;99369.58;106223;1274;96596;-65
2022/07/21 05:55:22;;;;;;;16.80;7.50;;;;;;;18.99;58.21;99366.54;106219;1274;107767;-65
2022/07/21 05:57:52;;;;;;;16.50;7.50;;;;;;;19.04;58.28;99367.58;106131;1274;97956;-65
2022/07/21 06:00:22;;;;;;;17.90;6.70;;;;;;;19.10;58.24;99365.73;106121;1274;97782;-66
2022/07/21 06:02:51;;;;;;;16.40;6.40;;;;;;;19.18;58.27;99364.96;106058;1277;111591;-65
2022/07/21 06:05:21;;;;;;;18.80;7.10;;;;;;;19.23;58.25;99364.05;106226;1274;95313;-65
2022/07/21 06:07:50;;;;;;;17.00;7.20;;;;;;;19.30;58.30;99361.39;106049;1274;107791;-66
2022/07/21 06:10:19;;;;;;;18.30;7.10;;;;;;;19.38;58.20;99360.31;106083;1274;97851;-66
2022/07/21 06:12:51;;;;;;;14.70;6.10;;;;;;;19.49;58.04;99359.96;106013;1275;97822;-66
2022/07/21 06:15:21;;;;;;;17.10;6.40;;;;;;;19.58;57.97;99353.07;106189;1274;112101;-65
2022/07/21 06:17:50;;;;;;;19.30;5.60;;;;;;;19.65;58.07;99351.38;106203;1274;97997;-64
2022/07/21 06:20:20;;;;;;;15.60;5.80;;;;;;;19.73;57.91;99350.73;106091;1274;108432;-64
2022/07/21 06:22:49;;;;;;;13.00;5.30;;;;;;;19.85;57.85;99353.09;106060;1274;97853;-65
2022/07/21 06:25:20;;;;;;;14.20;5.80;;;;;;;19.97;57.81;99350.35;106088;1274;97807;-66
2022/07/21 06:27:50;;;;;;;13.90;5.60;;;;;;;20.15;57.61;99346.25;106159;1273;112049;-65
2022/07/21 06:30:21;;;;;;;12.90;5.30;;;;;;;20.41;57.38;99348.16;106060;1274;96527;-64
2022/07/21 06:32:49;;;;;;;11.40;4.70;;;;;;;20.69;57.14;99348.52;106085;1274;108334;-65
2022/07/21 06:35:17;;;;;;;11.60;4.30;;;;;;;20.98;56.78;99348.40;106057;1274;97941;-64
2022/07/21 06:37:49;;;;;;;13.30;5.10;;;;;;;21.29;56.80;99354.30;106095;1274;97898;-64
2022/07/21 06:40:17;;;;;;;12.50;5.00;;;;;;;21.52;56.82;99353.67;106087;1274;112089;-65
2022/07/21 06:42:47;;;;;;;12.10;5.20;;;;;;;21.57;56.94;99355.27;106081;1274;95329;-66
2022/07/21 06:45:34;;;;;;;10.00;4.50;;;;;;;21.63;56.96;99359.13;106060;1274;108434;-66
2022/07/21 06:48:07;;;;;;;9.60;4.60;;;;;;;21.69;56.99;99370.04;106109;1273;97969;-65
2022/07/21 06:50:38;;;;;;;11.70;4.50;;;;;;;21.75;56.83;99376.77;106128;1274;97895;-66
2022/07/21 06:53:08;;;;;;;13.20;4.30;;;;;;;21.80;56.70;99379.45;106157;1274;110908;-66
2022/07/21 06:55:36;;;;;;;10.50;4.30;;;;;;;21.85;56.67;99375.80;106112;1274;97950;-65
2022/07/21 06:58:17;;;;;;;11.70;4.50;;;;;;;21.89;56.45;99367.35;106102;1274;107386;-65
2022/07/21 07:00:48;;;;;;;16.50;4.80;;;;;;;21.95;56.54;99368.88;105923;1274;97978;-65
2022/07/21 07:03:20;;;;;;;13.40;4.40;;;;;;;22.02;56.33;99371.71;106077;1274;97873;-66
2022/07/21 07:05:49;;;;;;;11.60;3.80;;;;;;;22.11;56.53;99370.98;105915;1274;110642;-65
2022/07/21 07:08:20;;;;;;;7.70;3.50;;;;;;;22.25;56.28;99374.43;105904;1274;98558;-65
2022/07/21 07:10:47;;;;;;;10.40;3.90;;;;;;;22.41;56.14;99369.08;105978;1274;108289;-66
2022/07/21 07:13:19;;;;;;;7.20;3.70;;;;;;;22.66;56.28;99371.31;106142;1274;97954;-65
2022/07/21 07:16:06;;;;;;;9.60;3.70;;;;;;;22.99;55.68;99372.98;106094;1274;97977;-67
2022/07/21 07:18:37;;;;;;;6.30;3.00;;;;;;;23.29;55.48;99373.38;106087;1274;112026;-66
2022/07/21 07:21:07;;;;;;;5.90;3.50;;;;;;;23.62;55.72;99373.91;106257;1274;97832;-65
2022/07/21 07:23:40;;;;;;;9.80;3.50;;;;;;;24.01;55.53;99369.85;106119;1274;107861;-65
2022/07/21 07:26:10;;;;;;;10.30;3.50;;;;;;;24.41;55.56;99378.89;106120;1274;95389;-65
2022/07/21 07:28:38;;;;;;;7.20;3.20;;;;;;;24.80;55.39;99380.44;106226;1274;97834;-66
2022/07/21 07:31:06;;;;;;;6.30;3.10;;;;;;;25.22;55.15;99375.70;106224;1274;112319;-65
2022/07/21 07:33:35;;;;;;;8.20;3.20;;;;;;;25.67;54.92;99374.41;106246;1274;97966;-66
2022/07/21 07:36:10;;;;;;;8.40;3.00;;;;;;;26.14;54.75;99370.39;106155;1274;107731;-66
2022/07/21 07:38:41;;;;;;;6.80;2.90;;;;;;;26.66;54.57;99368.83;106129;1274;97869;-66
2022/07/21 07:41:11;;;;;;;9.90;2.70;;;;;;;27.09;54.22;99370.92;106184;1274;97933;-65
2022/07/21 07:43:39;;;;;;;4.20;2.70;;;;;;;27.51;53.77;99379.15;106216;1273;111415;-66
2022/07/21 07:46:10;;;;;;;8.30;3.20;;;;;;;28.11;53.73;99379.88;106227;1274;95683;-66
2022/07/21 07:48:42;;;;;;;8.00;3.00;;;;;;;28.87;53.46;99384.73;106159;1274;108725;-65
2022/07/21 07:51:13;;;;;;;8.10;3.10;;;;;;;29.89;52.77;99383.38;105989;1274;95382;-66
2022/07/21 07:53:43;;;;;;;9.30;3.30;;;;;;;30.89;51.83;99380.66;106148;1274;97974;-64
2022/07/21 07:56:11;;;;;;;8.10;2.90;;;;;;;31.91;51.41;99381.52;106096;1274;112005;-65
2022/07/21 07:58:40;;;;;;;5.70;2.60;;;;;;;32.90;51.16;99381.96;106139;1274;98430;-65
2022/07/21 08:01:09;;;;;;;9.20;2.80;;;;;;;33.76;50.75;99388.64;106177;1274;108382;-65
2022/07/21 08:03:38;;;;;;;6.90;2.70;;;;;;;34.57;50.37;99385.85;106167;1274;95226;-65
2022/07/21 08:06:07;;;;;;;4.50;2.90;;;;;;;35.42;49.68;99383.88;106142;1273;95266;-66
2022/07/21 08:08:37;;;;;;;6.90;3.10;;;;;;;36.11;49.15;99377.40;106130;1274;111968;-66
2022/07/21 08:11:10;;;;;;;7.40;2.60;;;;;;;36.72;48.65;99375.80;106320;1274;95799;-65
2022/07/21 08:13:37;;;;;;;9.80;2.70;;;;;;;37.44;47.98;99375.36;106148;1274;107735;-66
2022/07/21 08:16:05;;;;;;;8.40;3.00;;;;;;;37.89;47.12;99381.34;106150;1274;96379;-65
2022/07/21 08:18:35;;;;;;;5.50;3.00;;;;;;;38.42;46.84;99384.13;106161;1274;95340;-66
2022/07/21 08:21:03;;;;;;;9.50;2.90;;;;;;;38.88;46.33;99384.50;106221;1274;112783;-66
2022/07/21 08:23:31;;;;;;;6.90;3.00;;;;;;;39.36;45.43;99379.89;106232;1273;96501;-66
2022/07/21 08:26:03;;;;;;;7.40;2.90;;;;;;;39.83;45.01;99375.20;106130;1274;107534;-66
2022/07/21 08:28:31;;;;;;;7.80;2.60;;;;;;;40.20;44.09;99372.84;106092;1274;95343;-66
2022/07/21 08:31:00;;;;;;;4.60;2.40;;;;;;;40.46;43.41;99375.67;106160;1274;97953;-69
2022/07/21 08:33:30;;;;;;;4.70;2.60;;;;;;;40.93;42.91;99377.16;106047;1274;111944;-68
2022/07/21 08:35:58;;;;;;;8.90;3.30;;;;;;;41.42;42.19;99374.96;105927;1274;96365;-67
2022/07/21 08:38:27;;;;;;;8.30;2.80;;;;;;;41.73;41.42;99378.48;106030;1274;108409;-67
2022/07/21 08:40:57;;;;;;;4.90;2.70;;;;;;;42.03;40.64;99382.00;107642;1276;97925;-66
2022/07/21 08:43:26;;;;;;;8.10;3.40;;;;;;;42.47;39.98;99380.70;107035;1274;97922;-66
2022/07/21 08:45:54;;;;;;;6.20;3.00;;;;;;;42.72;39.35;99383.00;106660;1274;111876;-66
2022/07/21 08:48:25;;;;;;;8.20;2.60;;;;;;;42.89;38.32;99377.63;107153;1274;96476;-66
2022/07/21 08:50:53;;;;;;;;;;;;;;;42.86;37.69;99373.75;105992;1274;108234;-67
2022/07/21 08:53:23;;;;;;;6.10;2.10;;;;;;;42.69;36.98;99384.83;105975;1274;96543;-66
2022/07/21 08:55:51;;;;;;;5.60;2.50;;;;;;;42.56;36.61;99386.41;106093;1274;97927;-67
2022/07/21 08:58:22;;;;;;;7.30;2.40;;;;;;;42.52;36.23;99388.08;106061;1274;111368;-66
2022/07/21 09:00:53;;;;;;;5.50;2.30;;;;;;;42.70;35.59;99384.92;106961;1274;98362;-67
2022/07/21 09:03:29;;;;;;;7.20;2.80;;;;;;;42.98;35.27;99380.80;106097;1274;107550;-67
2022/07/21 09:06:11;;;;;;;9.70;2.60;;;;;;;43.14;34.22;99373.33;106101;1274;97890;-67
2022/07/21 09:08:50;;;;;;;4.80;2.50;;;;;;;43.24;33.85;99374.23;106147;1274;97876;-66
2022/07/21 09:11:35;;;;;;;5.30;2.40;;;;;;;43.36;33.19;99373.95;106156;1274;111369;-69
2022/07/21 09:14:09;;;;;;;7.90;2.40;;;;;;;43.32;32.66;99368.41;106174;1274;95847;-66
2022/07/21 09:16:37;;;;;;;6.10;2.40;;;;;;;43.48;32.13;99367.84;106076;1274;107567;-66
2022/07/21 09:19:18;;;;;;;5.50;2.30;;;;;;;43.43;31.90;99367.36;106102;1274;95301;-66
2022/07/21 09:21:48;;;;;;;8.20;2.50;;;;;;;43.48;31.30;99367.83;106036;1274;95383;-67
2022/07/21 09:24:39;;;;;;;3.90;2.40;;;;;;;43.42;30.92;99367.77;106123;1274;111988;-66
2022/07/21 09:27:22;;;;;;;6.10;2.20;;;;;;;43.62;30.44;99360.81;106100;1274;97666;-68
2022/07/21 09:29:59;;;;;;;7.80;2.50;;;;;;;43.78;29.95;99362.44;106118;1274;108241;-67
2022/07/21 09:32:36;;;;;;;8.90;2.30;;;;;;;43.95;29.44;99362.00;106170;1274;97877;-69
2022/07/21 09:35:13;;;;;;;4.50;1.60;;;;;;;43.80;28.89;99358.00;106213;1274;96352;-68
2022/07/21 09:37:44;;;;;;;5.20;2.20;;;;;;;43.36;28.08;99363.02;106179;1274;111449;-68
2022/07/21 09:40:15;;;;;;;6.30;1.80;;;;;;;43.13;27.98;99364.38;106206;1274;96947;-68
2022/07/21 09:42:50;;;;;;;4.20;2.00;;;;;;;42.86;27.55;99366.90;106140;1274;108514;-67
2022/07/21 09:45:20;;;;;;;4.00;2.00;;;;;;;42.50;27.27;99364.73;106166;1274;95182;-67
2022/07/21 09:47:48;;;;;;;4.40;2.20;;;;;;;42.35;26.99;99358.80;106157;1274;97986;-66
2022/07/21 09:50:18;;;;;;;5.50;1.90;;;;;;;42.20;26.58;99357.36;106122;1274;112033;-68
2022/07/21 09:52:58;;;;;;;5.60;1.90;;;;;;;42.04;26.13;99353.77;106008;1274;98314;-68
2022/07/21 09:55:28;;;;;;;5.60;2.20;;;;;;;41.74;25.98;99348.89;106107;1274;108698;-67
2022/07/21 09:58:01;;;;;;;4.80;2.20;;;;;;;41.66;25.63;99345.95;106108;1274;98071;-66
2022/07/21 10:00:29;;;;;;;5.70;2.20;;;;;;;41.69;25.61;99342.55;106134;1274;97968;-67
2022/07/21 10:03:01;;;;;;;4.10;2.10;;;;;;;41.67;25.27;99341.85;106155;1274;111766;-67
2022/07/21 10:05:31;;;;;;;5.90;2.20;;;;;;;41.44;24.78;99340.15;106134;1274;95815;-67
2022/07/21 10:08:04;;;;;;;6.90;2.20;;;;;;;40.81;24.48;99342.73;106088;1274;108599;-67
2022/07/21 10:10:36;;;;;;;5.90;2.30;;;;;;;40.02;24.56;99341.52;106127;1274;98074;-67
2022/07/21 10:13:28;;;;;;;4.30;2.20;;;;;;;39.43;24.29;99344.36;106106;1274;97878;-67
2022/07/21 10:16:00;;;;;;;4.30;2.00;;;;;;;38.79;24.23;99346.09;106242;1274;111977;-67
2022/07/21 10:18:37;;;;;;;7.50;2.60;;;;;;;38.31;23.91;99347.05;106182;1274;97857;-67
2022/07/21 10:21:21;;;;;;;5.00;2.60;;;;;;;37.59;23.98;99344.73;106046;1274;106791;-66
2022/07/21 10:23:54;;;;;;;9.50;2.60;;;;;;;36.98;23.86;99351.30;106003;1274;96600;-66
2022/07/21 10:26:25;;;;;;;8.50;2.10;;;;;;;36.41;23.62;99353.04;106025;1274;97962;-66
2022/07/21 10:28:53;;;;;;;8.40;2.80;;;;;;;35.97;23.60;99350.85;106127;1273;111940;-67
2022/07/21 10:31:29;;;;;;;9.80;2.70;;;;;;;35.62;23.38;99353.61;106081;1274;98526;-66
2022/07/21 10:34:01;;;;;;;8.30;2.20;;;;;;;35.29;23.46;99350.19;106052;1274;107562;-65
2022/07/21 10:36:37;;;;;;;5.30;2.20;;;;;;;34.83;23.25;99350.78;106157;1274;97972;-65
2022/07/21 10:39:16;;;;;;;4.90;2.20;;;;;;;34.41;23.33;99351.60;105892;1274;95297;-66
2022/07/21 10:41:47;;;;;;;6.00;2.20;;;;;;;34.08;23.43;99349.95;105961;1276;111457;-66
2022/07/21 10:44:28;;;;;;;5.10;2.20;;;;;;;33.81;23.45;99351.69;106052;1274;95696;-66
2022/07/21 10:46:58;;;;;;;6.50;2.10;;;;;;;33.64;23.34;99353.52;106039;1274;106850;-65
2022/07/21 10:49:42;;;;;;;6.90;2.40;;;;;;;33.46;23.39;99348.83;106084;1274;97765;-66
2022/07/21 10:52:35;;;;;;;4.90;2.10;;;;;;;33.26;23.43;99341.39;106035;1274;97924;-68
2022/07/21 10:55:25;;;;;;;9.20;2.20;;;;;;;33.04;23.35;99334.16;106058;1274;112005;-67
2022/07/21 10:58:32;;;;;;;6.20;2.20;;;;;;;32.79;23.67;99337.46;106088;1274;98385;-68
2022/07/21 11:01:25;;;;;;;4.40;2.00;;;;;;;32.66;23.53;99335.05;106048;1274;108156;-65
2022/07/21 11:04:16;;;;;;;4.10;1.80;;;;;;;32.55;23.28;99327.65;105959;1274;98078;-67
2022/07/21 11:06:45;;;;;;;5.60;2.50;;;;;;;32.36;23.45;99320.71;106140;1273;97860;-68
2022/07/21 11:09:15;;;;;;;9.00;2.30;;;;;;;32.22;23.54;99316.96;106184;1274;112173;-68
2022/07/21 11:11:46;;;;;;;5.60;2.50;;;;;;;32.06;23.79;99314.21;106159;1274;96916;-67
2022/07/21 11:14:18;;;;;;;3.00;1.90;;;;;;;31.89;23.89;99309.13;106075;1274;107490;-68
2022/07/21 11:16:49;;;;;;;6.40;2.20;;;;;;;31.82;23.90;99306.13;106132;1274;95189;-67
2022/07/21 11:19:37;;;;;;;4.90;1.90;;;;;;;31.77;23.70;99303.29;106171;1274;97864;-67
2022/07/21 11:22:22;;;;;;;3.00;1.90;;;;;;;31.71;23.89;99300.61;106118;1274;112097;-68
2022/07/21 11:24:55;;;;;;;6.30;1.90;;;;;;;31.56;24.04;99299.39;106185;1274;98430;-68
2022/07/21 11:27:30;;;;;;;4.40;1.90;;;;;;;31.45;23.94;99298.13;106110;1274;107666;-66
2022/07/21 11:30:00;;;;;;;9.20;2.60;;;;;;;31.35;23.71;99294.19;106098;1274;98565;-66
2022/07/21 11:32:28;;;;;;;2.60;1.80;;;;;;;31.30;23.95;99292.59;105985;1272;97867;-67
2022/07/21 11:35:01;;;;;;;7.60;2.20;;;;;;;31.22;24.03;99293.65;106173;1274;113127;-67
2022/07/21 11:37:33;;;;;;;6.20;1.90;;;;;;;31.08;23.86;99296.73;106097;1274;97986;-67